Time;durP1;ratioP1;P1;durP2;ratioP2;P2;SDS_P1;SDS_P2;PMS_P1;PMS_P2;Temp;Humidity;BMP_temperature;BMP_pressure;BME280_temperature;BME280_humidity;BME280_pressure;Samples;Min_cycle;Max_cycle;Signal;HPM_P1;HPM_P2
2022/11/17 00:00:47;0.00;0.00;0.62;0.00;0.00;0.62;1.80;1.40;;;24.10;26.60;;;;;;2251977;61;20394;-65
2022/11/17 00:03:32;0.00;0.00;0.62;0.00;0.00;0.62;1.73;1.20;;;24.10;26.60;;;;;;2252540;61;20911;-63
2022/11/17 00:06:20;0.00;0.00;0.62;0.00;0.00;0.62;1.90;1.33;;;24.10;26.60;;;;;;2251456;61;20513;-63
2022/11/17 00:09:09;0.00;0.00;0.62;0.00;0.00;0.62;1.73;1.20;;;24.10;26.70;;;;;;2252241;61;20390;-63
2022/11/17 00:14:59;0.00;0.00;0.62;0.00;0.00;0.62;2.10;1.30;;;24.10;26.70;;;;;;2252033;61;20405;-63
2022/11/17 00:17:46;0.00;0.00;0.62;0.00;0.00;0.62;1.97;1.33;;;24.10;26.70;;;;;;2252100;61;20440;-64
2022/11/17 00:23:48;0.00;0.00;0.62;0.00;0.00;0.62;1.70;1.13;;;24.10;26.70;;;;;;2252088;61;20401;-63
2022/11/17 00:27:00;0.00;0.00;0.62;0.00;0.00;0.62;1.80;1.20;;;24.10;26.70;;;;;;2251521;61;20366;-64
2022/11/17 00:29:43;0.00;0.00;0.62;0.00;0.00;0.62;1.97;1.47;;;24.10;26.70;;;;;;2251933;61;20391;-64
2022/11/17 00:35:34;0.00;0.00;0.62;0.00;0.00;0.62;1.67;1.03;;;24.10;26.70;;;;;;2251179;61;20371;-64
2022/11/17 00:38:19;0.00;0.00;0.62;0.00;0.00;0.62;1.90;1.17;;;24.10;26.70;;;;;;2252102;61;20394;-70
2022/11/17 00:41:04;0.00;0.00;0.62;0.00;0.00;0.62;1.70;1.00;;;24.10;26.70;;;;;;2251483;61;20358;-68
2022/11/17 00:43:49;0.00;0.00;0.62;0.00;0.00;0.62;2.00;1.37;;;24.10;26.80;;;;;;2251896;61;20378;-70
2022/11/17 00:46:35;0.00;0.00;0.62;0.00;0.00;0.62;2.13;1.43;;;24.10;26.80;;;;;;2252224;61;20366;-70
2022/11/17 00:49:25;0.00;0.00;0.62;0.00;0.00;0.62;1.73;1.20;;;24.10;26.80;;;;;;2251536;61;20437;-69
2022/11/17 00:52:10;0.00;0.00;0.62;0.00;0.00;0.62;2.10;1.17;;;24.10;26.70;;;;;;2251720;61;20386;-69
2022/11/17 00:54:54;0.00;0.00;0.62;0.00;0.00;0.62;1.77;1.23;;;24.10;26.70;;;;;;2252519;61;20402;-69
2022/11/17 00:57:39;0.00;0.00;0.62;0.00;0.00;0.62;2.40;2.00;;;24.10;26.70;;;;;;2251405;61;20363;-68
2022/11/17 01:00:23;0.00;0.00;0.62;0.00;0.00;0.62;3.00;2.30;;;24.10;26.70;;;;;;2252611;61;20455;-69
2022/11/17 01:03:08;0.00;0.00;0.62;0.00;0.00;0.62;2.30;1.67;;;24.00;26.40;;;;;;2252153;61;20386;-68
2022/11/17 01:05:54;0.00;0.00;0.62;0.00;0.00;0.62;2.20;1.80;;;24.00;26.30;;;;;;2252212;61;20355;-69
2022/11/17 01:08:39;0.00;0.00;0.62;0.00;0.00;0.62;2.60;2.13;;;24.00;26.40;;;;;;2252345;61;20387;-69
2022/11/17 01:11:24;0.00;0.00;0.62;0.00;0.00;0.62;2.87;2.13;;;23.90;26.20;;;;;;2251610;61;20857;-68
2022/11/17 01:14:13;0.00;0.00;0.62;0.00;0.00;0.62;2.70;2.37;;;23.90;26.10;;;;;;2252086;61;20450;-68
2022/11/17 01:16:58;0.00;0.00;0.62;0.00;0.00;0.62;2.60;2.17;;;23.90;26.00;;;;;;2252428;61;20403;-69
2022/11/17 01:19:43;0.00;0.00;0.62;0.00;0.00;0.62;2.50;2.30;;;23.90;26.00;;;;;;2251614;61;20386;-69
2022/11/17 01:22:29;0.00;0.00;0.62;0.00;0.00;0.62;2.67;2.20;;;23.80;26.00;;;;;;2252040;61;20362;-68
2022/11/17 01:25:13;0.00;0.00;0.62;0.00;0.00;0.62;2.43;1.77;;;23.80;26.00;;;;;;2252364;61;20406;-68
2022/11/17 01:27:58;0.00;0.00;0.62;0.00;0.00;0.62;2.50;2.20;;;23.80;26.00;;;;;;2251948;61;20422;-68
2022/11/17 01:30:42;0.00;0.00;0.62;0.00;0.00;0.62;2.67;2.20;;;23.80;25.90;;;;;;2252402;61;20363;-68
2022/11/17 01:33:27;0.00;0.00;0.62;0.00;0.00;0.62;2.97;2.17;;;23.70;25.90;;;;;;2251420;61;20441;-69
2022/11/17 01:36:15;0.00;0.00;0.62;0.00;0.00;0.62;2.57;2.30;;;23.70;25.80;;;;;;2252008;61;20437;-69
2022/11/17 01:39:01;0.00;0.00;0.62;0.00;0.00;0.62;2.77;2.10;;;23.70;25.80;;;;;;2252380;61;20386;-68
2022/11/17 01:41:46;0.00;0.00;0.62;0.00;0.00;0.62;3.30;3.00;;;23.70;25.80;;;;;;2251467;61;20846;-68
2022/11/17 01:44:58;0.00;0.00;0.62;0.00;0.00;0.62;3.93;2.63;;;23.60;25.60;;;;;;2252339;61;20826;-68
2022/11/17 01:47:48;0.00;0.00;0.62;0.00;0.00;0.62;3.33;2.37;;;23.60;25.70;;;;;;2251189;61;20382;-68
2022/11/17 01:50:35;0.00;0.00;0.62;0.00;0.00;0.62;3.20;2.70;;;23.50;25.60;;;;;;2252036;61;20366;-68
2022/11/17 01:53:22;0.00;0.00;0.62;0.00;0.00;0.62;3.30;2.97;;;23.50;25.50;;;;;;2252041;61;20395;-68
2022/11/17 01:56:13;0.00;0.00;0.62;0.00;0.00;0.62;3.13;2.40;;;23.40;25.40;;;;;;2251208;61;20453;-68
2022/11/17 01:59:05;0.00;0.00;0.62;0.00;0.00;0.62;3.03;2.73;;;23.40;25.50;;;;;;2251856;61;20452;-68
2022/11/17 02:01:55;0.00;0.00;0.62;0.00;0.00;0.62;3.10;2.70;;;23.40;25.50;;;;;;2252377;61;20359;-69
2022/11/17 02:04:48;0.00;0.00;0.62;0.00;0.00;0.62;3.77;3.20;;;23.30;25.50;;;;;;2251054;61;20413;-68
2022/11/17 02:07:36;0.00;0.00;0.62;0.00;0.00;0.62;3.03;2.73;;;23.30;25.50;;;;;;2252273;61;20417;-68
2022/11/17 02:10:21;0.00;0.00;0.62;0.00;0.00;0.62;3.10;2.80;;;23.20;25.40;;;;;;2251588;61;20366;-68
2022/11/17 02:13:08;0.00;0.00;0.62;0.00;0.00;0.62;3.40;3.00;;;23.20;25.30;;;;;;2251870;61;20802;-68
2022/11/17 02:15:53;0.00;0.00;0.62;0.00;0.00;0.62;4.70;3.20;;;23.10;25.30;;;;;;2252337;61;20362;-68
2022/11/17 02:18:38;0.00;0.00;0.62;0.00;0.00;0.62;3.90;3.50;;;23.10;25.80;;;;;;2251272;61;20383;-68
2022/11/17 02:22:19;0.00;0.00;0.62;0.00;0.00;0.62;3.87;2.90;;;23.10;25.30;;;;;;2251976;61;20363;-68
2022/11/17 02:25:52;0.00;0.00;0.62;0.00;0.00;0.62;3.33;3.00;;;23.00;25.30;;;;;;2239183;61;20381;-68
2022/11/17 02:28:42;0.00;0.00;0.62;0.00;0.00;0.62;3.50;3.10;;;22.90;25.20;;;;;;2252108;61;20486;-68
2022/11/17 02:31:34;0.00;0.00;0.62;0.00;0.00;0.62;4.13;3.10;;;22.90;25.20;;;;;;2252123;61;20442;-68
2022/11/17 02:34:32;0.00;0.00;0.62;0.00;0.00;0.62;3.43;3.13;;;22.80;25.20;;;;;;2251402;61;20923;-68
2022/11/17 02:37:26;0.00;0.00;0.62;0.00;0.00;0.62;3.17;2.63;;;22.80;25.20;;;;;;2252067;61;20810;-68
2022/11/17 02:40:19;0.00;0.00;0.62;0.00;0.00;0.62;3.20;2.90;;;22.80;25.80;;;;;;2251324;61;20815;-69
2022/11/17 02:46:18;0.00;0.00;0.62;0.00;0.00;0.62;2.60;2.40;;;22.70;25.20;;;;;;2252116;61;20382;-68
2022/11/17 02:49:07;0.00;0.00;0.62;0.00;0.00;0.62;4.00;3.03;;;22.70;25.30;;;;;;2251469;61;20394;-68
2022/11/17 02:51:56;0.00;0.00;0.62;0.00;0.00;0.62;3.53;2.83;;;22.60;25.20;;;;;;2251976;61;20394;-68
2022/11/17 02:54:41;0.00;0.00;0.62;0.00;0.00;0.62;3.30;3.00;;;22.60;25.20;;;;;;2251327;61;20359;-68
2022/11/17 02:57:27;0.00;0.00;0.62;0.00;0.00;0.62;3.40;2.70;;;22.60;25.20;;;;;;2251461;61;21020;-68
2022/11/17 03:00:15;0.00;0.00;0.62;0.00;0.00;0.62;2.20;2.00;;;22.50;25.20;;;;;;2252263;61;20374;-69
2022/11/17 03:03:22;0.00;0.00;0.62;0.00;0.00;0.62;3.30;2.90;;;22.50;25.30;;;;;;2251205;61;20414;-68
2022/11/17 03:06:18;0.00;0.00;0.62;0.00;0.00;0.62;3.20;2.90;;;22.50;25.30;;;;;;2252166;61;20426;-68
2022/11/17 03:09:14;0.00;0.00;0.62;0.00;0.00;0.62;3.00;2.40;;;22.50;25.30;;;;;;2251973;61;20872;-68
2022/11/17 03:12:08;0.00;0.00;0.62;0.00;0.00;0.62;2.57;2.20;;;22.50;25.40;;;;;;2252375;61;20363;-68
2022/11/17 03:15:02;0.00;0.00;0.62;0.00;0.00;0.62;3.60;2.63;;;22.40;25.30;;;;;;2252875;61;20816;-68
2022/11/17 03:17:57;0.00;0.00;0.62;0.00;0.00;0.62;3.90;2.80;;;22.40;25.30;;;;;;2251651;61;20379;-68
2022/11/17 03:20:56;0.00;0.00;0.62;0.00;0.00;0.62;3.47;3.17;;;22.40;25.90;;;;;;2252467;61;20378;-68
2022/11/17 03:23:45;0.00;0.00;0.62;0.00;0.00;0.62;2.87;2.50;;;22.40;25.30;;;;;;2252478;61;20362;-68
2022/11/17 03:26:34;0.00;0.00;0.62;0.00;0.00;0.62;4.00;3.00;;;22.40;25.40;;;;;;2252219;61;20430;-69
2022/11/17 03:29:23;0.00;0.00;0.62;0.00;0.00;0.62;3.30;2.70;;;22.30;25.30;;;;;;2251290;61;20800;-68
2022/11/17 03:32:09;0.00;0.00;0.62;0.00;0.00;0.62;2.83;2.43;;;22.30;25.40;;;;;;2252138;61;20362;-68
2022/11/17 03:34:58;0.00;0.00;0.62;0.00;0.00;0.62;2.90;2.60;;;22.30;25.40;;;;;;2252528;61;20879;-68
2022/11/17 03:37:49;0.00;0.00;0.62;0.00;0.00;0.62;2.60;2.40;;;22.30;25.30;;;;;;2252043;61;20410;-68
2022/11/17 03:40:38;0.00;0.00;0.62;0.00;0.00;0.62;3.07;2.43;;;22.20;25.30;;;;;;2252111;61;20413;-68
2022/11/17 03:43:25;0.00;0.00;0.62;0.00;0.00;0.62;3.03;2.73;;;22.20;25.30;;;;;;2252297;61;20371;-69
2022/11/17 03:46:15;0.00;0.00;0.62;0.00;0.00;0.62;3.00;2.70;;;22.20;25.30;;;;;;2252259;61;20371;-69
2022/11/17 03:49:10;0.00;0.00;0.62;0.00;0.00;0.62;2.63;2.13;;;22.20;25.30;;;;;;2252271;61;20382;-69
2022/11/17 03:51:55;0.00;0.00;0.62;0.00;0.00;0.62;4.00;3.00;;;22.10;25.30;;;;;;2251795;61;20366;-69
2022/11/17 03:54:41;0.00;0.00;0.62;0.00;0.00;0.62;5.93;3.47;;;22.10;25.30;;;;;;2252344;61;20397;-69
2022/11/17 03:57:36;0.00;0.00;0.62;0.00;0.00;0.62;2.97;2.67;;;22.10;25.30;;;;;;2252207;61;20405;-69
2022/11/17 04:00:21;0.00;0.00;0.62;0.00;0.00;0.62;3.30;3.00;;;22.10;25.30;;;;;;2252372;61;20466;-69
2022/11/17 04:03:06;0.00;0.00;0.62;0.00;0.00;0.62;3.37;2.97;;;22.10;25.30;;;;;;2252359;61;20820;-69
2022/11/17 04:05:50;0.00;0.00;0.62;0.00;0.00;0.62;3.43;3.13;;;22.00;25.20;;;;;;2252027;61;20685;-69
2022/11/17 04:08:35;0.00;0.00;0.62;0.00;0.00;0.62;3.80;2.97;;;22.00;25.30;;;;;;2251600;61;20386;-69
2022/11/17 04:17:28;0.00;0.00;0.62;0.00;0.00;0.62;2.90;2.50;;;21.90;25.30;;;;;;2251907;61;20362;-69
2022/11/17 04:20:12;0.00;0.00;0.62;0.00;0.00;0.62;3.30;3.00;;;21.90;25.30;;;;;;2252145;61;20417;-69
2022/11/17 04:23:06;0.00;0.00;0.62;0.00;0.00;0.62;3.00;2.80;;;21.90;25.30;;;;;;2251676;61;20359;-69
2022/11/17 04:28:58;0.00;0.00;0.62;0.00;0.00;0.62;2.87;2.57;;;21.90;25.30;;;;;;2251894;61;20378;-69
2022/11/17 04:31:43;0.00;0.00;0.62;0.00;0.00;0.62;5.80;2.80;;;21.80;25.20;;;;;;2252051;61;20367;-69
2022/11/17 04:34:27;0.00;0.00;0.62;0.00;0.00;0.62;3.00;2.70;;;21.90;25.30;;;;;;2252217;61;20516;-69
2022/11/17 04:37:16;0.00;0.00;0.62;0.00;0.00;0.62;3.97;2.97;;;21.80;25.30;;;;;;2252376;61;20910;-69
2022/11/17 04:40:01;0.00;0.00;0.62;0.00;0.00;0.62;3.17;2.87;;;21.80;25.30;;;;;;2251698;61;20394;-68
2022/11/17 04:42:45;0.00;0.00;0.62;0.00;0.00;0.62;3.77;2.87;;;21.80;25.20;;;;;;2252017;61;20391;-68
2022/11/17 04:45:33;0.00;0.00;0.62;0.00;0.00;0.62;3.13;2.83;;;21.80;25.10;;;;;;2252156;61;20371;-69
2022/11/17 04:48:17;0.00;0.00;0.62;0.00;0.00;0.62;3.00;2.70;;;21.80;25.10;;;;;;2251995;61;20416;-70
2022/11/17 04:51:02;0.00;0.00;0.62;0.00;0.00;0.62;3.40;2.90;;;21.70;25.10;;;;;;2251917;61;20414;-70
2022/11/17 04:53:47;0.00;0.00;0.62;0.00;0.00;0.62;3.50;2.90;;;21.70;25.20;;;;;;2251958;61;20930;-69
2022/11/17 04:56:32;0.00;0.00;0.62;0.00;0.00;0.62;3.00;2.67;;;21.70;25.30;;;;;;2251906;61;20774;-69
2022/11/17 04:59:17;0.00;0.00;0.62;0.00;0.00;0.62;3.50;2.80;;;21.60;25.30;;;;;;2252406;61;20402;-70
2022/11/17 05:02:03;0.00;0.00;0.62;0.00;0.00;0.62;2.80;2.43;;;21.70;25.30;;;;;;2251664;61;20359;-70
2022/11/17 05:04:56;0.00;0.00;0.62;0.00;0.00;0.62;4.87;3.27;;;21.60;25.30;;;;;;2251836;61;20362;-71
2022/11/17 05:07:41;0.00;0.00;0.62;0.00;0.00;0.62;3.13;2.83;;;21.60;25.30;;;;;;2252033;61;20359;-69
2022/11/17 05:13:30;0.00;0.00;0.62;0.00;0.00;0.62;3.20;2.90;;;21.60;25.30;;;;;;2251778;61;20423;-69
2022/11/17 05:19:22;0.00;0.00;0.62;0.00;0.00;0.62;3.70;2.80;;;21.50;25.30;;;;;;2251895;61;20426;-69
2022/11/17 05:25:12;0.00;0.00;0.62;0.00;0.00;0.62;2.90;2.57;;;21.50;25.40;;;;;;2251856;61;20363;-70
2022/11/17 05:27:57;0.00;0.00;0.62;0.00;0.00;0.62;2.70;2.10;;;21.50;25.30;;;;;;2251779;61;20391;-69
2022/11/17 05:30:42;0.00;0.00;0.62;0.00;0.00;0.62;2.87;2.47;;;21.50;25.90;;;;;;2251889;61;20446;-69
2022/11/17 05:33:26;0.00;0.00;0.62;0.00;0.00;0.62;3.07;2.77;;;21.50;25.40;;;;;;2252199;61;20910;-70
2022/11/17 05:36:13;0.00;0.00;0.62;0.00;0.00;0.62;3.00;2.67;;;21.50;25.40;;;;;;2251965;61;20922;-69
2022/11/17 05:38:58;0.00;0.00;0.62;0.00;0.00;0.62;2.90;2.37;;;21.50;25.40;;;;;;2251731;61;20445;-69
2022/11/17 05:41:43;0.00;0.00;0.62;0.00;0.00;0.62;2.77;1.90;;;21.50;25.50;;;;;;2251879;61;20366;-69
2022/11/17 05:44:28;0.00;0.00;0.62;0.00;0.00;0.62;2.60;1.87;;;21.50;25.50;;;;;;2251863;61;20359;-69
2022/11/17 05:47:12;0.00;0.00;0.62;0.00;0.00;0.62;3.20;2.60;;;21.50;25.50;;;;;;2251838;61;20492;-69
2022/11/17 05:49:57;0.00;0.00;0.62;0.00;0.00;0.62;4.20;2.53;;;21.50;25.50;;;;;;2252010;61;20430;-69
2022/11/17 05:52:43;0.00;0.00;0.62;0.00;0.00;0.62;2.50;2.30;;;21.50;25.50;;;;;;2251588;61;20833;-69
2022/11/17 05:55:27;0.00;0.00;0.62;0.00;0.00;0.62;2.33;2.10;;;21.50;25.50;;;;;;2252122;61;20929;-70
2022/11/17 05:58:24;0.00;0.00;0.62;0.00;0.00;0.62;2.67;2.40;;;21.50;25.50;;;;;;2251550;61;20402;-69
2022/11/17 06:01:10;0.00;0.00;0.62;0.00;0.00;0.62;3.27;2.70;;;21.50;25.50;;;;;;2251562;61;20453;-70
2022/11/17 06:03:59;0.00;0.00;0.62;0.00;0.00;0.62;2.47;2.07;;;21.40;25.40;;;;;;2252007;61;20459;-68
2022/11/17 06:06:45;0.00;0.00;0.62;0.00;0.00;0.62;3.60;2.67;;;21.40;25.50;;;;;;2251806;61;20367;-69
2022/11/17 06:09:34;0.00;0.00;0.62;0.00;0.00;0.62;4.47;2.87;;;21.40;25.50;;;;;;2251774;61;20383;-65
2022/11/17 06:12:19;0.00;0.00;0.62;0.00;0.00;0.62;2.80;2.50;;;21.40;25.50;;;;;;2251721;61;20922;-64
2022/11/17 06:15:05;0.00;0.00;0.62;0.00;0.00;0.62;2.70;2.40;;;21.40;25.50;;;;;;2251736;61;20417;-65
2022/11/17 06:17:55;0.00;0.00;0.62;0.00;0.00;0.62;3.43;2.53;;;21.40;25.50;;;;;;2251910;61;20386;-64
2022/11/17 06:20:44;0.00;0.00;0.62;0.00;0.00;0.62;3.10;2.80;;;21.40;25.50;;;;;;2252077;61;20402;-66
2022/11/17 06:23:31;0.00;0.00;0.62;0.00;0.00;0.62;2.83;2.53;;;21.40;26.10;;;;;;2251628;61;20363;-66
2022/11/17 06:26:17;0.00;0.00;0.62;0.00;0.00;0.62;2.90;2.60;;;21.40;25.60;;;;;;2251273;61;20371;-66
2022/11/17 06:29:04;0.00;0.00;0.62;0.00;0.00;0.62;3.13;2.53;;;21.40;25.70;;;;;;2251754;61;20398;-66
2022/11/17 06:31:49;0.00;0.00;0.62;0.00;0.00;0.62;2.57;2.37;;;21.40;25.70;;;;;;2251512;61;20410;-67
2022/11/17 06:34:34;0.00;0.00;0.62;0.00;0.00;0.62;3.77;2.50;;;21.30;25.60;;;;;;2251529;61;20871;-67
2022/11/17 06:37:19;0.00;0.00;0.62;0.00;0.00;0.62;3.43;3.10;;;21.40;25.70;;;;;;2251758;61;20383;-71
2022/11/17 06:40:05;0.00;0.00;0.62;0.00;0.00;0.62;2.50;2.30;;;21.40;25.70;;;;;;2251866;61;20366;-70
2022/11/17 06:46:08;0.00;0.00;0.62;0.00;0.00;0.62;3.00;2.70;;;21.40;25.70;;;;;;2250922;61;20378;-65
2022/11/17 06:48:53;0.00;0.00;0.62;0.00;0.00;0.62;3.57;3.27;;;21.40;25.70;;;;;;2252533;61;20399;-65
2022/11/17 06:51:38;0.00;0.00;0.62;0.00;0.00;0.62;4.00;3.60;;;21.30;25.50;;;;;;2252605;61;20362;-66
2022/11/17 06:54:22;0.00;0.00;0.62;0.00;0.00;0.62;3.80;3.30;;;21.30;26.00;;;;;;2252390;61;20914;-64
2022/11/17 06:57:08;0.00;0.00;0.62;0.00;0.00;0.62;4.03;3.63;;;21.30;25.50;;;;;;2252552;61;20413;-65
2022/11/17 06:59:54;0.00;0.00;0.62;0.00;0.00;0.62;4.17;3.77;;;21.30;25.50;;;;;;2252684;61;20906;-66
2022/11/17 07:02:39;0.00;0.00;0.62;0.00;0.00;0.62;3.57;3.07;;;21.30;25.40;;;;;;2251773;61;20359;-64
2022/11/17 07:05:23;0.00;0.00;0.62;0.00;0.00;0.62;3.90;3.33;;;21.30;26.00;;;;;;2252881;61;20414;-65
2022/11/17 07:08:08;0.00;0.00;0.62;0.00;0.00;0.62;4.67;3.57;;;21.20;25.40;;;;;;2252273;61;20386;-65
2022/11/17 07:10:54;0.00;0.00;0.62;0.00;0.00;0.62;3.90;3.60;;;21.20;25.40;;;;;;2252322;61;20371;-64
2022/11/17 07:13:38;0.00;0.00;0.62;0.00;0.00;0.62;3.00;2.70;;;21.20;25.40;;;;;;2252408;61;20382;-64
2022/11/17 07:16:24;0.00;0.00;0.62;0.00;0.00;0.62;3.73;2.90;;;21.20;26.00;;;;;;2252263;61;20351;-65
2022/11/17 07:19:10;0.00;0.00;0.62;0.00;0.00;0.62;3.83;3.20;;;21.10;25.50;;;;;;2252327;61;20470;-67
2022/11/17 07:21:54;0.00;0.00;0.62;0.00;0.00;0.62;5.17;3.10;;;21.10;25.50;;;;;;2251989;61;20427;-64
2022/11/17 07:24:39;0.00;0.00;0.62;0.00;0.00;0.62;3.53;3.20;;;21.10;25.60;;;;;;2252316;61;20413;-65
2022/11/17 07:27:24;0.00;0.00;0.62;0.00;0.00;0.62;3.67;3.37;;;21.10;25.60;;;;;;2252771;61;20362;-66
2022/11/17 07:30:10;0.00;0.00;0.62;0.00;0.00;0.62;4.40;4.00;;;21.10;25.60;;;;;;2251994;61;20371;-64
2022/11/17 07:32:57;0.00;0.00;0.62;0.00;0.00;0.62;3.13;2.70;;;21.10;25.60;;;;;;2252188;61;20422;-66
2022/11/17 07:35:42;0.00;0.00;0.62;0.00;0.00;0.62;3.33;3.03;;;21.10;25.60;;;;;;2252418;61;20371;-65
2022/11/17 07:38:30;0.00;0.00;0.62;0.00;0.00;0.62;3.30;3.00;;;21.10;25.60;;;;;;2252259;61;20402;-64
2022/11/17 07:41:15;0.00;0.00;0.62;0.00;0.00;0.62;4.20;3.50;;;21.10;25.60;;;;;;2252579;61;20850;-64
2022/11/17 07:43:59;0.00;0.00;0.62;0.00;0.00;0.62;3.63;2.90;;;21.10;25.60;;;;;;2252651;61;20378;-65
2022/11/17 07:46:44;0.00;0.00;0.62;0.00;0.00;0.62;3.40;2.80;;;21.10;25.60;;;;;;2252060;61;20363;-65
2022/11/17 07:49:30;0.00;0.00;0.62;0.00;0.00;0.62;3.50;3.20;;;21.10;25.60;;;;;;2252616;61;20378;-65
2022/11/17 07:52:14;0.00;0.00;0.62;0.00;0.00;0.62;3.37;2.83;;;21.10;26.10;;;;;;2252350;61;20504;-64
2022/11/17 07:54:59;0.00;0.00;0.62;0.00;0.00;0.62;4.30;3.00;;;21.10;25.50;;;;;;2252422;61;20413;-65
2022/11/17 07:57:43;0.00;0.00;0.62;0.00;0.00;0.62;4.13;3.20;;;21.10;25.50;;;;;;2252266;61;20530;-65
2022/11/17 08:00:30;0.00;0.00;0.62;0.00;0.00;0.62;3.90;3.10;;;21.10;25.50;;;;;;2252661;61;20363;-65
2022/11/17 08:03:15;0.00;0.00;0.62;0.00;0.00;0.62;5.53;3.17;;;21.10;25.50;;;;;;2252474;61;20362;-65
2022/11/17 08:06:02;0.00;0.00;0.62;0.00;0.00;0.62;4.40;3.00;;;21.00;25.40;;;;;;2252459;61;20439;-65
2022/11/17 08:08:48;0.00;0.00;0.62;0.00;0.00;0.62;4.63;3.73;;;21.00;25.40;;;;;;2252495;61;20468;-65
2022/11/17 08:11:33;0.00;0.00;0.62;0.00;0.00;0.62;3.80;2.77;;;21.00;25.40;;;;;;2252308;61;20390;-65
2022/11/17 08:14:17;0.00;0.00;0.62;0.00;0.00;0.62;3.70;3.17;;;21.00;25.40;;;;;;2252372;61;20394;-64
2022/11/17 08:17:02;0.00;0.00;0.62;0.00;0.00;0.62;3.70;3.27;;;21.00;25.40;;;;;;2252281;61;20462;-65
2022/11/17 08:19:46;0.00;0.00;0.62;0.00;0.00;0.62;4.23;3.40;;;21.00;25.40;;;;;;2252436;61;20390;-65
2022/11/17 08:22:32;0.00;0.00;0.62;0.00;0.00;0.62;4.60;3.63;;;21.00;25.40;;;;;;2252366;61;20363;-65
2022/11/17 08:25:18;0.00;0.00;0.62;0.00;0.00;0.62;5.10;3.40;;;21.00;25.40;;;;;;2252335;61;20387;-64
2022/11/17 08:28:03;0.00;0.00;0.62;0.00;0.00;0.62;4.17;3.33;;;21.00;25.30;;;;;;2252354;61;20422;-65
2022/11/17 08:30:48;0.00;0.00;0.62;0.00;0.00;0.62;4.00;3.17;;;21.00;25.30;;;;;;2252524;61;20418;-65
2022/11/17 08:33:33;0.00;0.00;0.62;0.00;0.00;0.62;5.47;4.03;;;21.00;25.40;;;;;;2252169;61;20422;-65
2022/11/17 08:36:18;0.00;0.00;0.62;0.00;0.00;0.62;5.60;5.00;;;21.00;25.40;;;;;;2252504;61;20822;-66
2022/11/17 08:39:04;0.00;0.00;0.62;0.00;0.00;0.62;6.73;6.00;;;21.00;25.30;;;;;;2251844;61;20781;-68
2022/11/17 08:41:50;0.00;0.00;0.62;0.00;0.00;0.62;8.63;7.23;;;21.00;25.30;;;;;;2252307;61;20370;-67
2022/11/17 08:44:35;0.00;0.00;0.62;0.00;0.00;0.62;7.87;6.50;;;21.00;25.20;;;;;;2252198;61;20395;-65
2022/11/17 08:47:20;0.00;0.00;0.62;0.00;0.00;0.62;6.10;5.50;;;21.00;25.20;;;;;;2251937;61;20977;-71
2022/11/17 08:50:06;0.00;0.00;0.62;0.00;0.00;0.62;6.53;5.57;;;21.00;25.10;;;;;;2252090;61;20403;-69
2022/11/17 08:52:51;0.00;0.00;0.62;0.00;0.00;0.62;7.07;6.03;;;20.90;25.20;;;;;;2252024;61;21025;-66
2022/11/17 08:55:37;0.00;0.00;0.62;0.00;0.00;0.62;8.27;7.17;;;20.90;25.70;;;;;;2252030;61;20402;-65
2022/11/17 08:58:22;0.00;0.00;0.62;0.00;0.00;0.62;7.00;6.03;;;21.00;25.30;;;;;;2251800;61;20402;-67
2022/11/17 09:01:08;0.00;0.00;0.62;0.00;0.00;0.62;6.40;5.80;;;21.00;25.30;;;;;;2251766;61;20426;-66
2022/11/17 09:03:53;0.00;0.00;0.62;0.00;0.00;0.62;8.90;6.80;;;21.00;25.40;;;;;;2252507;61;20358;-66
2022/11/17 09:06:37;0.00;0.00;0.62;0.00;0.00;0.62;9.03;6.37;;;21.10;25.50;;;;;;2251976;61;20394;-66
2022/11/17 09:09:22;0.00;0.00;0.62;0.00;0.00;0.62;8.40;7.30;;;21.10;25.50;;;;;;2251901;61;20520;-65
2022/11/17 09:12:08;0.00;0.00;0.62;0.00;0.00;0.62;9.00;7.60;;;21.10;25.50;;;;;;2252104;61;20363;-67
2022/11/17 09:14:53;0.00;0.00;0.62;0.00;0.00;0.62;11.90;8.20;;;21.10;25.60;;;;;;2252273;61;20776;-65
2022/11/17 09:17:39;0.00;0.00;0.62;0.00;0.00;0.62;9.13;7.30;;;21.20;25.70;;;;;;2251647;61;20363;-67
2022/11/17 09:20:23;0.00;0.00;0.62;0.00;0.00;0.62;10.60;8.27;;;21.20;25.70;;;;;;2252023;61;20881;-66
2022/11/17 09:23:08;0.00;0.00;0.62;0.00;0.00;0.62;10.90;8.20;;;21.20;25.70;;;;;;2251979;61;20928;-66
2022/11/17 09:25:52;0.00;0.00;0.62;0.00;0.00;0.62;11.30;9.27;;;21.20;25.70;;;;;;2252427;61;20903;-64
2022/11/17 09:28:39;0.00;0.00;0.62;0.00;0.00;0.62;13.30;10.43;;;21.20;25.70;;;;;;2250044;61;20486;-66
2022/11/17 09:31:24;0.00;0.00;0.62;0.00;0.00;0.62;12.10;8.37;;;21.30;25.80;;;;;;2251489;61;20913;-65
2022/11/17 09:34:09;0.00;0.00;0.62;0.00;0.00;0.62;12.20;9.20;;;21.30;25.80;;;;;;2251856;61;20390;-68
2022/11/17 09:36:53;0.00;0.00;0.62;0.00;0.00;0.62;12.50;9.10;;;21.30;25.80;;;;;;2251917;61;20366;-69
2022/11/17 09:39:38;0.00;0.00;0.62;0.00;0.00;0.62;10.57;8.73;;;21.30;25.70;;;;;;2251473;61;20402;-66
2022/11/17 09:42:23;0.00;0.00;0.62;0.00;0.00;0.62;12.80;10.67;;;21.30;25.80;;;;;;2251808;61;20895;-65
2022/11/17 09:45:16;0.00;0.00;0.62;0.00;0.00;0.62;11.70;9.90;;;21.40;25.90;;;;;;2251483;61;20394;-65
2022/11/17 09:48:09;0.00;0.00;0.62;0.00;0.00;0.62;13.40;10.73;;;21.40;25.90;;;;;;2251636;61;20415;-64
2022/11/17 09:50:56;0.00;0.00;0.62;0.00;0.00;0.62;14.33;11.47;;;21.40;26.40;;;;;;2326813;53;20778;-65
2022/11/17 09:53:48;0.00;0.00;0.62;0.00;0.00;0.62;13.80;10.47;;;21.40;26.00;;;;;;2251373;61;20778;-65
2022/11/17 09:56:33;0.00;0.00;0.62;0.00;0.00;0.62;13.70;10.17;;;21.50;26.00;;;;;;2251880;61;20795;-65
2022/11/17 09:59:20;0.00;0.00;0.62;0.00;0.00;0.62;15.73;11.27;;;21.50;26.00;;;;;;2251825;61;20394;-64
2022/11/17 10:02:09;0.00;0.00;0.62;0.00;0.00;0.62;16.17;11.80;;;21.50;26.00;;;;;;2251562;61;20430;-64
2022/11/17 10:04:53;0.00;0.00;0.62;0.00;0.00;0.62;18.40;11.87;;;21.50;26.00;;;;;;2251632;61;20374;-67
2022/11/17 10:07:45;0.00;0.00;0.62;0.00;0.00;0.62;12.20;10.70;;;21.50;26.00;;;;;;2251768;61;20902;-64
2022/11/17 10:10:38;0.00;0.00;0.62;0.00;0.00;0.62;14.73;12.23;;;21.50;26.00;;;;;;2252289;61;20371;-64
2022/11/17 10:13:26;0.00;0.00;0.62;0.00;0.00;0.62;14.03;10.97;;;21.60;26.00;;;;;;2251803;61;20422;-66
2022/11/17 10:16:13;0.00;0.00;0.62;0.00;0.00;0.62;16.20;12.10;;;21.60;26.00;;;;;;2251676;61;20430;-62
2022/11/17 10:19:07;0.00;0.00;0.62;0.00;0.00;0.62;14.83;11.50;;;21.60;26.00;;;;;;2252454;61;20960;-62
2022/11/17 10:21:57;0.00;0.00;0.62;0.00;0.00;0.62;13.50;10.30;;;21.60;26.00;;;;;;2252894;61;20421;-62
2022/11/17 10:24:46;0.00;0.00;0.62;0.00;0.00;0.62;15.30;12.00;;;21.60;26.00;;;;;;2252180;61;20351;-64
2022/11/17 10:27:33;0.00;0.00;0.62;0.00;0.00;0.62;15.43;11.03;;;21.70;26.10;;;;;;2252383;61;20367;-64
2022/11/17 10:30:22;0.00;0.00;0.62;0.00;0.00;0.62;14.20;11.13;;;21.70;26.60;;;;;;2252262;61;20479;-64
2022/11/17 10:33:12;0.00;0.00;0.62;0.00;0.00;0.62;15.77;11.97;;;21.70;26.00;;;;;;2252439;61;20394;-63
2022/11/17 10:35:59;0.00;0.00;0.62;0.00;0.00;0.62;12.90;10.37;;;21.70;26.10;;;;;;2252616;61;20451;-63
2022/11/17 10:38:47;0.00;0.00;0.62;0.00;0.00;0.62;11.40;10.20;;;21.70;26.00;;;;;;2252210;61;20386;-67
2022/11/17 10:41:39;0.00;0.00;0.62;0.00;0.00;0.62;12.23;10.37;;;21.80;26.10;;;;;;2252514;61;20768;-63
2022/11/17 10:44:29;0.00;0.00;0.62;0.00;0.00;0.62;13.97;9.93;;;21.80;26.10;;;;;;2252692;61;20806;-62
2022/11/17 10:47:30;0.00;0.00;0.62;0.00;0.00;0.62;13.53;10.20;;;21.80;26.10;;;;;;2252663;61;20451;-67
2022/11/17 10:50:22;0.00;0.00;0.62;0.00;0.00;0.62;11.73;10.03;;;21.80;26.00;;;;;;2252669;61;20400;-63
2022/11/17 10:53:27;0.00;0.00;0.62;0.00;0.00;0.62;12.10;10.27;;;21.80;26.00;;;;;;2251926;61;20515;-68
2022/11/17 10:56:15;0.00;0.00;0.62;0.00;0.00;0.62;14.67;9.23;;;21.80;26.00;;;;;;2252429;61;20482;-66
2022/11/17 10:59:12;0.00;0.00;0.62;0.00;0.00;0.62;12.03;9.53;;;21.90;26.00;;;;;;2252273;61;20398;-65
2022/11/17 11:02:17;0.00;0.00;0.62;0.00;0.00;0.62;12.17;10.13;;;21.90;26.00;;;;;;2252651;61;20463;-65
2022/11/17 11:05:09;0.00;0.00;0.62;0.00;0.00;0.62;12.80;9.70;;;21.90;26.00;;;;;;2252318;61;20355;-65
2022/11/17 11:08:14;0.00;0.00;0.62;0.00;0.00;0.62;14.30;10.63;;;21.90;26.00;;;;;;2251853;61;20470;-63
2022/11/17 11:11:06;0.00;0.00;0.62;0.00;0.00;0.62;11.60;9.10;;;21.90;26.00;;;;;;2252306;61;20368;-63
2022/11/17 11:13:56;0.00;0.00;0.62;0.00;0.00;0.62;12.60;8.53;;;22.00;26.00;;;;;;2252333;61;20421;-64
2022/11/17 11:16:42;0.00;0.00;0.62;0.00;0.00;0.62;12.03;8.67;;;22.00;26.10;;;;;;2252069;61;20430;-66
2022/11/17 11:19:28;0.00;0.00;0.62;0.00;0.00;0.62;11.93;8.73;;;22.00;26.00;;;;;;2252216;61;20437;-65
2022/11/17 11:22:31;0.00;0.00;0.62;0.00;0.00;0.62;11.73;7.73;;;22.00;26.10;;;;;;2251524;61;20784;-65
2022/11/17 11:25:32;0.00;0.00;0.62;0.00;0.00;0.62;8.90;7.37;;;22.00;26.10;;;;;;2251902;61;20366;-64
2022/11/17 11:28:37;0.00;0.00;0.62;0.00;0.00;0.62;9.90;7.90;;;22.00;26.00;;;;;;2251852;61;20429;-65
2022/11/17 11:31:31;0.00;0.00;0.62;0.00;0.00;0.62;10.30;7.77;;;22.00;26.00;;;;;;2251806;61;20378;-65
2022/11/17 11:34:58;0.00;0.00;0.62;0.00;0.00;0.62;10.77;8.10;;;22.10;26.10;;;;;;2251935;61;20461;-63
2022/11/17 11:37:50;0.00;0.00;0.62;0.00;0.00;0.62;8.47;6.40;;;22.10;26.10;;;;;;2251988;61;20410;-65